createdAt,value
2022-11-05T00:00:37.169Z,6.43
2022-11-05T00:03:23.373Z,6.55
2022-11-05T00:06:11.579Z,5.22
2022-11-05T00:08:58.072Z,4.53
2022-11-05T00:11:45.116Z,4.45
2022-11-05T00:14:44.646Z,5.05
2022-11-05T00:17:11.704Z,5.47
2022-11-05T00:19:38.713Z,4.97
2022-11-05T00:22:24.614Z,5.20
2022-11-05T00:25:10.219Z,3.92
2022-11-05T00:27:37.211Z,3.60
2022-11-05T00:30:07.331Z,3.88
2022-11-05T00:32:36.593Z,3.65
2022-11-05T00:35:04.086Z,2.97
2022-11-05T00:37:31.287Z,3.10
2022-11-05T00:39:58.374Z,2.75
2022-11-05T00:42:44.172Z,2.90
2022-11-05T00:45:12.534Z,3.38
2022-11-05T00:47:58.214Z,3.42
2022-11-05T00:50:25.548Z,3.00
2022-11-05T00:52:57.366Z,3.30
2022-11-05T00:55:38.573Z,2.58
2022-11-05T00:58:12.048Z,2.85
2022-11-05T01:00:45.062Z,3.60
2022-11-05T01:03:15.353Z,2.90
2022-11-05T01:05:46.225Z,2.67
2022-11-05T01:08:14.746Z,2.88
2022-11-05T01:10:53.355Z,3.20
2022-11-05T01:13:26.286Z,2.70
2022-11-05T01:15:53.855Z,3.20
2022-11-05T01:18:22.921Z,2.63
2022-11-05T01:20:50.803Z,2.70
2022-11-05T01:23:18.354Z,2.65
2022-11-05T01:25:45.996Z,2.97
2022-11-05T01:28:13.028Z,2.10
2022-11-05T01:30:40.238Z,2.70
2022-11-05T01:33:07.977Z,2.22
2022-11-05T01:35:35.232Z,2.72
2022-11-05T01:38:02.516Z,2.58
2022-11-05T01:40:29.625Z,2.75
2022-11-05T01:42:56.693Z,2.60
2022-11-05T01:45:28.609Z,2.97
2022-11-05T01:48:13.715Z,2.70
2022-11-05T01:51:04.267Z,2.80
2022-11-05T01:54:09.660Z,3.05
2022-11-05T01:56:42.702Z,3.38
2022-11-05T01:59:25.013Z,2.72
2022-11-05T02:01:53.736Z,2.58
2022-11-05T02:04:35.732Z,2.80
2022-11-05T02:07:05.732Z,2.80
2022-11-05T02:10:09.657Z,2.95
2022-11-05T02:15:06.633Z,2.47
2022-11-05T02:17:48.406Z,2.25
2022-11-05T02:20:49.423Z,2.55
2022-11-05T02:23:27.877Z,2.83
2022-11-05T02:26:39.680Z,2.53
2022-11-05T02:29:25.075Z,2.22
2022-11-05T02:32:07.006Z,2.28
2022-11-05T02:34:40.044Z,2.25
2022-11-05T02:37:18.021Z,2.40
2022-11-05T02:40:22.678Z,2.30
2022-11-05T02:43:16.162Z,3.05
2022-11-05T02:45:53.945Z,3.22
2022-11-05T02:48:30.847Z,2.92
2022-11-05T02:51:13.152Z,3.25
2022-11-05T02:53:56.661Z,2.95
2022-11-05T02:58:59.249Z,3.92
2022-11-05T03:01:26.466Z,3.33
2022-11-05T03:04:06.855Z,3.58
2022-11-05T03:06:58.018Z,3.30
2022-11-05T03:09:41.026Z,2.85
2022-11-05T03:12:25.464Z,3.47
2022-11-05T03:15:15.024Z,2.92
2022-11-05T03:17:45.352Z,3.53
2022-11-05T03:20:15.398Z,3.25
2022-11-05T03:22:51.372Z,2.92
2022-11-05T03:25:22.550Z,2.53
2022-11-05T03:27:55.939Z,2.72
2022-11-05T03:30:25.183Z,3.55
2022-11-05T03:32:59.738Z,2.45
2022-11-05T03:35:30.864Z,3.25
2022-11-05T03:38:05.570Z,3.08
2022-11-05T03:40:35.441Z,2.47
2022-11-05T03:43:06.735Z,2.65
2022-11-05T03:46:06.764Z,2.65
2022-11-05T03:48:38.935Z,2.60
2022-11-05T03:51:19.348Z,2.38
2022-11-05T03:53:57.888Z,3.08
2022-11-05T03:56:31.331Z,2.33
2022-11-05T03:59:00.899Z,2.50
2022-11-05T04:01:29.029Z,2.17
2022-11-05T04:03:56.153Z,2.08
2022-11-05T04:06:42.165Z,2.10
2022-11-05T04:09:29.527Z,2.10
2022-11-05T04:12:15.065Z,2.33
2022-11-05T04:14:42.055Z,1.92
2022-11-05T04:17:11.795Z,2.40
2022-11-05T04:20:02.383Z,2.15
2022-11-05T04:22:52.459Z,1.98
2022-11-05T04:25:21.333Z,1.60
2022-11-05T04:27:49.304Z,1.90
2022-11-05T04:30:20.892Z,2.08
2022-11-05T04:33:13.037Z,1.90
2022-11-05T04:35:50.249Z,2.20
2022-11-05T04:38:20.331Z,2.00
2022-11-05T04:40:48.373Z,2.03
2022-11-05T04:43:18.633Z,1.75
2022-11-05T04:45:46.502Z,2.20
2022-11-05T04:48:13.728Z,2.00
2022-11-05T04:50:40.759Z,2.65
2022-11-05T04:53:07.975Z,2.63
2022-11-05T04:55:35.094Z,2.20
2022-11-05T04:58:02.115Z,2.42
2022-11-05T05:00:29.227Z,2.90
2022-11-05T05:02:56.392Z,2.80
2022-11-05T05:05:23.391Z,2.88
2022-11-05T05:07:50.451Z,2.65
2022-11-05T05:10:18.056Z,3.08
2022-11-05T05:12:45.154Z,2.80
2022-11-05T05:15:12.284Z,2.70
2022-11-05T05:17:39.286Z,2.60
2022-11-05T05:20:25.789Z,1.63
2022-11-05T05:22:54.108Z,1.85
2022-11-05T05:25:21.476Z,2.72
2022-11-05T05:27:48.497Z,2.25
2022-11-05T05:30:15.632Z,2.00
2022-11-05T05:32:42.674Z,1.75
2022-11-05T05:35:10.174Z,2.28
2022-11-05T05:37:37.186Z,2.38
2022-11-05T05:40:04.684Z,2.60
2022-11-05T05:42:31.760Z,2.58
2022-11-05T05:44:58.832Z,1.98
2022-11-05T05:47:25.852Z,2.10
2022-11-05T05:49:53.001Z,2.00
2022-11-05T05:52:20.051Z,1.80
2022-11-05T05:54:47.094Z,2.20
2022-11-05T05:57:14.119Z,1.92
2022-11-05T05:59:41.168Z,2.60
2022-11-05T06:02:08.564Z,2.20
2022-11-05T06:04:35.694Z,2.20
2022-11-05T06:07:02.747Z,2.30
2022-11-05T06:09:29.776Z,1.90
2022-11-05T06:11:56.845Z,2.20
2022-11-05T06:14:23.899Z,2.13
2022-11-05T06:16:51.007Z,2.30
2022-11-05T06:19:18.098Z,2.42
2022-11-05T06:21:45.215Z,2.03
2022-11-05T06:24:12.210Z,2.53
2022-11-05T06:26:42.981Z,2.15
2022-11-05T06:29:13.269Z,2.10
2022-11-05T06:31:40.825Z,1.90
2022-11-05T06:34:07.914Z,1.90
2022-11-05T06:36:35.048Z,1.85
2022-11-05T06:39:02.064Z,1.60
2022-11-05T06:41:29.155Z,2.10
2022-11-05T06:43:56.228Z,2.10
2022-11-05T06:46:23.264Z,2.08
2022-11-05T06:48:51.120Z,2.17
2022-11-05T06:51:18.257Z,1.80
2022-11-05T06:53:45.271Z,1.90
2022-11-05T06:56:12.451Z,2.30
2022-11-05T06:58:39.541Z,2.30
2022-11-05T07:01:09.335Z,1.73
2022-11-05T07:03:38.069Z,1.98
2022-11-05T07:06:07.200Z,1.60
2022-11-05T07:08:35.889Z,1.92
2022-11-05T07:11:03.878Z,1.80
2022-11-05T07:13:31.041Z,1.80
2022-11-05T07:15:58.129Z,2.20
2022-11-05T07:18:25.231Z,2.35
2022-11-05T07:20:52.344Z,2.03
2022-11-05T07:23:19.538Z,2.00
2022-11-05T07:25:46.901Z,1.92
2022-11-05T07:28:14.658Z,2.00
2022-11-05T07:30:41.860Z,1.95
2022-11-05T07:33:09.776Z,2.20
2022-11-05T07:35:37.161Z,2.00
2022-11-05T07:38:04.557Z,2.35
2022-11-05T07:40:31.899Z,2.10
2022-11-05T07:43:01.026Z,2.13
2022-11-05T07:45:30.884Z,2.50
2022-11-05T07:48:00.707Z,2.47
2022-11-05T07:50:30.998Z,2.47
2022-11-05T07:53:06.337Z,2.90
2022-11-05T07:55:34.224Z,2.40
2022-11-05T07:58:01.427Z,2.15
2022-11-05T08:00:28.936Z,2.40
2022-11-05T08:03:07.334Z,2.78
2022-11-05T08:05:37.723Z,2.40
2022-11-05T08:08:06.508Z,2.92
2022-11-05T08:10:34.368Z,2.65
2022-11-05T08:13:02.254Z,2.45
2022-11-05T08:15:29.341Z,2.85
2022-11-05T08:18:00.972Z,2.80
2022-11-05T08:20:28.519Z,2.33
2022-11-05T08:23:01.949Z,2.50
2022-11-05T08:25:41.748Z,2.70
2022-11-05T08:28:37.313Z,2.58
2022-11-05T08:31:04.429Z,2.33
2022-11-05T08:33:31.648Z,2.25
2022-11-05T08:36:05.002Z,2.53
2022-11-05T08:38:32.109Z,2.45
2022-11-05T08:40:59.376Z,2.83
2022-11-05T08:43:26.404Z,2.78
2022-11-05T08:45:55.216Z,2.38
2022-11-05T08:48:22.300Z,2.35
2022-11-05T08:50:49.819Z,2.70
2022-11-05T08:53:17.273Z,2.67
2022-11-05T08:55:46.489Z,2.70
2022-11-05T08:58:17.128Z,2.95
2022-11-05T09:00:47.073Z,2.90
2022-11-05T09:03:15.228Z,2.75
2022-11-05T09:05:43.265Z,2.65
2022-11-05T09:08:12.804Z,2.88
2022-11-05T09:10:43.747Z,2.90
2022-11-05T09:13:17.784Z,3.10
2022-11-05T09:15:47.357Z,2.50
2022-11-05T09:18:15.141Z,2.65
2022-11-05T09:20:42.571Z,2.85
2022-11-05T09:23:11.454Z,2.38
2022-11-05T09:25:39.175Z,3.22
2022-11-05T09:28:16.431Z,3.03
2022-11-05T09:30:49.935Z,2.95
2022-11-05T09:33:19.478Z,2.78
2022-11-05T09:35:46.722Z,2.58
2022-11-05T09:38:16.502Z,3.00
2022-11-05T09:40:54.556Z,3.28
2022-11-05T09:43:31.171Z,3.08
2022-11-05T09:46:02.987Z,2.88
2022-11-05T09:48:33.484Z,3.17
2022-11-05T09:51:00.998Z,3.13
2022-11-05T09:53:28.444Z,2.90
2022-11-05T09:55:58.410Z,3.28
2022-11-05T09:58:31.252Z,3.30
2022-11-05T10:00:59.231Z,3.70
2022-11-05T10:03:30.221Z,3.63
2022-11-05T10:06:10.468Z,2.95
2022-11-05T10:08:44.923Z,3.20
2022-11-05T10:11:20.915Z,3.38
2022-11-05T10:13:52.423Z,2.95
2022-11-05T10:16:36.208Z,4.03
2022-11-05T10:19:24.675Z,3.97
2022-11-05T10:22:12.654Z,4.40
2022-11-05T10:24:49.490Z,4.28
2022-11-05T10:27:25.424Z,4.20
2022-11-05T10:29:52.526Z,4.22
2022-11-05T10:32:33.353Z,4.60
2022-11-05T10:35:05.217Z,4.82
2022-11-05T10:37:39.630Z,4.45
2022-11-05T10:40:20.071Z,4.03
2022-11-05T10:42:55.062Z,5.13
2022-11-05T10:45:28.002Z,4.30
2022-11-05T10:48:01.051Z,4.10
2022-11-05T10:53:14.578Z,4.50
2022-11-05T10:55:46.197Z,4.40
2022-11-05T10:58:27.523Z,4.20
2022-11-05T11:00:54.584Z,4.40
2022-11-05T11:03:30.771Z,4.40
2022-11-05T11:06:01.238Z,4.25
2022-11-05T11:08:29.824Z,4.75
2022-11-05T11:11:05.366Z,4.95
2022-11-05T11:13:57.422Z,4.90
2022-11-05T11:16:27.007Z,5.03
2022-11-05T11:19:00.993Z,5.03
2022-11-05T11:21:30.164Z,5.03
2022-11-05T11:24:00.604Z,5.10
2022-11-05T11:26:36.125Z,4.95
2022-11-05T11:29:06.187Z,4.65
2022-11-05T11:31:38.513Z,5.25
2022-11-05T11:34:28.349Z,5.00
2022-11-05T11:37:06.919Z,4.75
2022-11-05T11:39:34.407Z,5.45
2022-11-05T11:42:08.299Z,4.85
2022-11-05T11:44:42.443Z,4.90
2022-11-05T11:47:13.210Z,4.35
2022-11-05T11:49:49.484Z,4.63
2022-11-05T11:52:19.618Z,5.70
2022-11-05T11:54:46.676Z,5.10
2022-11-05T11:57:29.632Z,4.50
2022-11-05T12:00:14.628Z,5.30
2022-11-05T12:02:58.858Z,5.10
2022-11-05T12:05:46.932Z,5.07
2022-11-05T12:08:27.645Z,4.53
2022-11-05T12:11:09.049Z,5.68
2022-11-05T12:13:56.507Z,5.10
2022-11-05T12:17:09.731Z,5.50
2022-11-05T12:20:06.126Z,5.93
2022-11-05T12:23:41.262Z,5.45
2022-11-05T12:26:19.782Z,6.70
2022-11-05T12:29:18.565Z,6.20
2022-11-05T12:32:01.267Z,6.82
2022-11-05T12:35:08.204Z,5.53
2022-11-05T12:37:55.800Z,7.00
2022-11-05T12:41:00.759Z,6.00
2022-11-05T12:43:49.765Z,6.43
2022-11-05T12:46:33.350Z,6.68
2022-11-05T12:49:17.192Z,5.25
2022-11-05T12:51:50.016Z,5.57
2022-11-05T12:54:26.007Z,6.60
2022-11-05T12:56:59.215Z,6.38
2022-11-05T13:02:29.896Z,6.63
2022-11-05T13:05:19.946Z,6.78
2022-11-05T13:08:01.011Z,6.40
2022-11-05T13:10:39.714Z,5.85
2022-11-05T13:13:33.357Z,6.30
2022-11-05T13:16:10.243Z,6.75
2022-11-05T13:19:00.656Z,6.43
2022-11-05T13:21:29.759Z,5.97
2022-11-05T13:24:30.142Z,6.03
2022-11-05T13:27:15.059Z,6.15
2022-11-05T13:30:00.921Z,5.25
2022-11-05T13:32:43.210Z,6.43
2022-11-05T13:35:29.920Z,6.53
2022-11-05T13:38:24.353Z,6.13
2022-11-05T13:41:25.338Z,6.18
2022-11-05T13:43:59.094Z,6.47
2022-11-05T13:46:42.992Z,6.50
2022-11-05T13:49:13.991Z,7.00
2022-11-05T13:52:19.426Z,6.85
2022-11-05T13:54:57.051Z,5.72
2022-11-05T13:57:56.381Z,4.45
2022-11-05T14:00:27.310Z,6.18
2022-11-05T14:03:05.234Z,5.18
2022-11-05T14:05:41.567Z,6.03
2022-11-05T14:08:20.110Z,5.53
2022-11-05T14:11:22.577Z,5.78
2022-11-05T14:13:55.311Z,5.78
2022-11-05T14:16:31.477Z,7.13
2022-11-05T14:19:20.124Z,6.10
2022-11-05T14:21:52.498Z,6.53
2022-11-05T14:24:22.667Z,7.10
2022-11-05T14:27:01.727Z,5.80
2022-11-05T14:29:42.146Z,6.93
2022-11-05T14:32:21.168Z,7.25
2022-11-05T14:34:57.136Z,6.90
2022-11-05T14:37:55.194Z,7.15
2022-11-05T14:40:22.195Z,6.65
2022-11-05T14:42:57.351Z,6.55
2022-11-05T14:45:33.517Z,7.60
2022-11-05T14:48:07.195Z,7.80
2022-11-05T14:50:40.899Z,7.38
2022-11-05T14:53:26.605Z,7.88
2022-11-05T14:56:02.483Z,8.50
2022-11-05T14:58:33.332Z,7.90
2022-11-05T15:01:02.090Z,9.13
2022-11-05T15:03:45.777Z,9.23
2022-11-05T15:06:30.479Z,8.43
2022-11-05T15:09:21.886Z,8.55
2022-11-05T15:11:59.339Z,9.82
2022-11-05T15:14:34.864Z,8.60
2022-11-05T15:17:23.443Z,8.27
2022-11-05T15:19:52.487Z,12.25
2022-11-05T15:22:35.011Z,21.25
2022-11-05T15:25:04.461Z,21.02
2022-11-05T15:28:12.793Z,20.38
2022-11-05T15:30:56.400Z,27.58
2022-11-05T15:33:23.479Z,29.90
2022-11-05T15:35:50.690Z,32.58
2022-11-05T15:38:35.548Z,29.70
2022-11-05T15:41:15.133Z,29.08
2022-11-05T15:43:49.586Z,30.75
2022-11-05T15:46:33.162Z,30.40
2022-11-05T15:49:07.176Z,26.65
2022-11-05T15:51:36.212Z,27.85
2022-11-05T15:54:34.908Z,18.73
2022-11-05T15:57:02.588Z,12.18
2022-11-05T15:59:35.908Z,9.32
2022-11-05T16:02:24.908Z,9.88
2022-11-05T16:04:54.537Z,10.27
2022-11-05T16:07:26.916Z,9.70
2022-11-05T16:10:01.960Z,9.45
2022-11-05T16:12:39.251Z,10.40
2022-11-05T16:15:10.133Z,8.48
2022-11-05T16:17:39.780Z,7.38
2022-11-05T16:20:23.624Z,7.07
2022-11-05T16:22:59.626Z,7.38
2022-11-05T16:25:46.796Z,11.32
2022-11-05T16:28:24.924Z,10.98
2022-11-05T16:30:59.310Z,11.18
2022-11-05T16:33:33.685Z,9.13
2022-11-05T16:36:03.850Z,8.18
2022-11-05T16:38:31.918Z,7.18
2022-11-05T16:41:00.443Z,7.45
2022-11-05T16:43:30.359Z,7.68
2022-11-05T16:46:02.121Z,7.43
2022-11-05T16:48:29.932Z,7.45
2022-11-05T16:50:57.401Z,7.03
2022-11-05T16:53:26.612Z,7.78
2022-11-05T16:55:53.650Z,7.15
2022-11-05T16:58:24.258Z,8.32
2022-11-05T17:00:54.898Z,8.63
2022-11-05T17:03:21.982Z,8.25
2022-11-05T17:05:52.102Z,9.02
2022-11-05T17:08:19.447Z,9.88
2022-11-05T17:10:48.728Z,7.57
2022-11-05T17:13:19.914Z,7.78
2022-11-05T17:15:49.689Z,8.20
2022-11-05T17:18:19.557Z,8.00
2022-11-05T17:20:49.901Z,7.50
2022-11-05T17:23:29.994Z,7.45
2022-11-05T17:26:07.684Z,7.68
2022-11-05T17:28:40.330Z,7.40
2022-11-05T17:31:11.186Z,7.40
2022-11-05T17:33:39.494Z,6.80
2022-11-05T17:36:08.488Z,7.60
2022-11-05T17:38:40.006Z,7.45
2022-11-05T17:41:15.881Z,6.45
2022-11-05T17:43:43.585Z,7.43
2022-11-05T17:46:14.983Z,6.78
2022-11-05T17:48:48.063Z,6.55
2022-11-05T17:51:18.628Z,7.43
2022-11-05T17:53:47.407Z,7.03
2022-11-05T17:56:26.167Z,7.22
2022-11-05T17:59:00.990Z,7.20
2022-11-05T18:01:33.869Z,6.75
2022-11-05T18:04:07.200Z,6.78
2022-11-05T18:06:37.100Z,6.32
2022-11-05T18:09:09.379Z,6.72
2022-11-05T18:11:39.827Z,6.67
2022-11-05T18:14:07.268Z,6.93
2022-11-05T18:16:36.750Z,7.10
2022-11-05T18:19:04.765Z,5.68
2022-11-05T18:21:31.925Z,6.97
2022-11-05T18:23:58.979Z,5.57
2022-11-05T18:26:26.149Z,6.75
2022-11-05T18:28:53.218Z,6.93
2022-11-05T18:31:22.810Z,5.85
2022-11-05T18:33:51.094Z,6.38
2022-11-05T18:36:23.815Z,6.05
2022-11-05T18:38:51.384Z,5.75
2022-11-05T18:41:19.398Z,5.53
2022-11-05T18:43:47.180Z,6.63
2022-11-05T18:46:35.706Z,5.53
2022-11-05T18:49:01.957Z,5.80
2022-11-05T18:51:29.149Z,5.03
2022-11-05T18:53:56.499Z,5.75
2022-11-05T18:56:26.441Z,5.88
2022-11-05T18:59:14.570Z,5.93
2022-11-05T19:01:41.354Z,6.45
2022-11-05T19:04:09.209Z,5.93
2022-11-05T19:06:37.500Z,6.30
2022-11-05T19:09:06.734Z,5.95
2022-11-05T19:11:34.218Z,6.15
2022-11-05T19:14:03.725Z,7.35
2022-11-05T19:16:32.170Z,6.13
2022-11-05T19:19:01.145Z,6.28
2022-11-05T19:21:29.063Z,5.70
2022-11-05T19:24:00.270Z,6.35
2022-11-05T19:26:29.032Z,6.30
2022-11-05T19:29:00.922Z,6.20
2022-11-05T19:31:29.301Z,6.47
2022-11-05T19:33:56.494Z,6.25
2022-11-05T19:36:25.813Z,6.38
2022-11-05T19:39:05.125Z,6.03
2022-11-05T19:41:35.227Z,7.05
2022-11-05T19:44:04.461Z,6.28
2022-11-05T19:46:32.037Z,6.00
2022-11-05T19:49:02.576Z,6.22
2022-11-05T19:51:33.887Z,5.70
2022-11-05T19:54:02.721Z,6.10
2022-11-05T19:56:32.830Z,6.07
2022-11-05T19:59:01.220Z,6.60
2022-11-05T20:01:30.321Z,6.47
2022-11-05T20:03:59.110Z,6.10
2022-11-05T20:06:33.306Z,5.97
2022-11-05T20:11:54.537Z,6.60
2022-11-05T20:14:23.949Z,7.18
2022-11-05T20:16:51.489Z,6.10
2022-11-05T20:19:20.831Z,6.43
2022-11-05T20:21:48.199Z,7.57
2022-11-05T20:24:23.674Z,6.70
2022-11-05T20:26:52.961Z,6.35
2022-11-05T20:29:22.798Z,6.28
2022-11-05T20:31:50.362Z,7.43
2022-11-05T20:34:17.495Z,6.35
2022-11-05T20:36:44.704Z,6.65
2022-11-05T20:39:12.381Z,6.70
2022-11-05T20:41:39.436Z,6.80
2022-11-05T20:44:06.471Z,6.70
2022-11-05T20:46:34.814Z,6.43
2022-11-05T20:49:01.908Z,6.25
2022-11-05T20:51:29.047Z,6.35
2022-11-05T20:53:58.000Z,6.72
2022-11-05T20:56:28.258Z,7.10
2022-11-05T20:58:58.533Z,8.45
2022-11-05T21:01:27.693Z,7.93
2022-11-05T21:03:55.339Z,7.57
2022-11-05T21:06:23.161Z,7.72
2022-11-05T21:08:51.480Z,8.48
2022-11-05T21:11:19.639Z,7.97
2022-11-05T21:13:48.196Z,7.95
2022-11-05T21:16:18.600Z,8.32
2022-11-05T21:18:46.999Z,7.90
2022-11-05T21:21:19.794Z,8.15
2022-11-05T21:23:47.583Z,8.25
2022-11-05T21:26:17.027Z,8.00
2022-11-05T21:28:44.950Z,8.38
2022-11-05T21:31:12.002Z,7.93
2022-11-05T21:33:39.236Z,8.52
2022-11-05T21:36:12.006Z,7.80
2022-11-05T21:38:40.393Z,9.30
2022-11-05T21:41:08.449Z,7.57
2022-11-05T21:43:35.482Z,8.63
2022-11-05T21:46:04.147Z,9.60
2022-11-05T21:48:31.993Z,8.65
2022-11-05T21:51:17.733Z,8.90
2022-11-05T21:54:03.217Z,9.00
2022-11-05T21:56:49.064Z,9.13
2022-11-05T21:59:38.133Z,9.63
2022-11-05T22:02:06.722Z,9.50
2022-11-05T22:04:36.439Z,9.18
2022-11-05T22:07:04.634Z,9.52
2022-11-05T22:09:31.833Z,9.77
2022-11-05T22:12:01.544Z,9.43
2022-11-05T22:14:29.693Z,9.00
2022-11-05T22:16:57.985Z,10.30
2022-11-05T22:19:25.706Z,9.73
2022-11-05T22:21:53.276Z,9.82
2022-11-05T22:24:20.981Z,9.77
2022-11-05T22:26:48.257Z,9.65
2022-11-05T22:29:16.294Z,9.10
2022-11-05T22:31:43.656Z,10.32
2022-11-05T22:34:11.711Z,9.57
2022-11-05T22:36:39.134Z,10.95
2022-11-05T22:39:06.823Z,10.70
2022-11-05T22:41:33.996Z,9.65
2022-11-05T22:44:01.082Z,9.95
2022-11-05T22:46:28.110Z,10.02
2022-11-05T22:48:56.381Z,11.18
2022-11-05T22:51:26.880Z,9.27
2022-11-05T22:53:54.954Z,10.27
2022-11-05T22:56:24.924Z,10.77
2022-11-05T22:58:52.785Z,10.43
2022-11-05T23:01:21.629Z,10.55
2022-11-05T23:03:50.608Z,11.15
2022-11-05T23:06:45.147Z,10.85
2022-11-05T23:09:39.631Z,10.45
2022-11-05T23:12:09.789Z,11.05
2022-11-05T23:14:36.953Z,9.77
2022-11-05T23:17:23.060Z,11.10
2022-11-05T23:20:28.399Z,10.63
2022-11-05T23:23:14.077Z,10.60
2022-11-05T23:25:41.694Z,11.55
2022-11-05T23:28:10.651Z,11.00
2022-11-05T23:31:00.538Z,10.60
2022-11-05T23:33:28.834Z,10.43
2022-11-05T23:36:14.406Z,10.32
2022-11-05T23:38:41.441Z,9.77
2022-11-05T23:41:26.910Z,9.88
2022-11-05T23:44:12.410Z,9.88
2022-11-05T23:46:58.079Z,10.35
2022-11-05T23:49:25.233Z,9.95
2022-11-05T23:51:52.299Z,10.15
2022-11-05T23:54:19.345Z,10.32
2022-11-05T23:56:46.460Z,10.07
2022-11-05T23:59:13.621Z,10.23
